sensor_id;sensor_type;location;lat;lon;timestamp;P1;durP1;ratioP1;P2;durP2;ratioP2
23390;SDS011;11868;45.606;5.302;2022-07-29T00:02:25;8.10;;;1.95;;
23390;SDS011;11868;45.606;5.302;2022-07-29T00:04:52;2.83;;;1.67;;
23390;SDS011;11868;45.606;5.302;2022-07-29T00:07:17;7.05;;;1.40;;
23390;SDS011;11868;45.606;5.302;2022-07-29T00:09:43;3.05;;;1.13;;
23390;SDS011;11868;45.606;5.302;2022-07-29T00:12:08;3.38;;;1.48;;
23390;SDS011;11868;45.606;5.302;2022-07-29T00:14:34;2.67;;;1.33;;
23390;SDS011;11868;45.606;5.302;2022-07-29T00:16:59;6.25;;;1.50;;
23390;SDS011;11868;45.606;5.302;2022-07-29T00:19:24;2.35;;;1.25;;
23390;SDS011;11868;45.606;5.302;2022-07-29T00:21:50;2.80;;;1.40;;
23390;SDS011;11868;45.606;5.302;2022-07-29T00:24:15;3.75;;;1.25;;
23390;SDS011;11868;45.606;5.302;2022-07-29T00:26:40;5.13;;;1.40;;
23390;SDS011;11868;45.606;5.302;2022-07-29T00:29:06;3.20;;;1.45;;
23390;SDS011;11868;45.606;5.302;2022-07-29T00:31:31;1.63;;;1.30;;
23390;SDS011;11868;45.606;5.302;2022-07-29T00:33:57;3.33;;;1.70;;
23390;SDS011;11868;45.606;5.302;2022-07-29T00:36:22;3.03;;;1.20;;
23390;SDS011;11868;45.606;5.302;2022-07-29T00:38:48;4.30;;;1.27;;
23390;SDS011;11868;45.606;5.302;2022-07-29T00:41:14;5.00;;;1.50;;
23390;SDS011;11868;45.606;5.302;2022-07-29T00:43:40;2.58;;;1.30;;
23390;SDS011;11868;45.606;5.302;2022-07-29T00:46:05;7.13;;;1.50;;
23390;SDS011;11868;45.606;5.302;2022-07-29T00:48:31;2.72;;;1.35;;
23390;SDS011;11868;45.606;5.302;2022-07-29T00:50:57;5.88;;;1.50;;
23390;SDS011;11868;45.606;5.302;2022-07-29T00:53:23;4.63;;;1.35;;
23390;SDS011;11868;45.606;5.302;2022-07-29T00:55:49;4.63;;;1.35;;
23390;SDS011;11868;45.606;5.302;2022-07-29T00:58:15;2.28;;;1.30;;
23390;SDS011;11868;45.606;5.302;2022-07-29T01:00:40;5.30;;;1.35;;
23390;SDS011;11868;45.606;5.302;2022-07-29T01:03:06;5.72;;;1.33;;
23390;SDS011;11868;45.606;5.302;2022-07-29T01:05:32;2.97;;;1.20;;
23390;SDS011;11868;45.606;5.302;2022-07-29T01:07:58;5.70;;;1.33;;
23390;SDS011;11868;45.606;5.302;2022-07-29T01:10:24;4.07;;;1.52;;
23390;SDS011;11868;45.606;5.302;2022-07-29T01:12:51;4.13;;;1.48;;
23390;SDS011;11868;45.606;5.302;2022-07-29T01:15:18;1.60;;;1.20;;
23390;SDS011;11868;45.606;5.302;2022-07-29T01:21:03;6.53;;;1.63;;
23390;SDS011;11868;45.606;5.302;2022-07-29T01:31:16;5.95;;;1.40;;
23390;SDS011;11868;45.606;5.302;2022-07-29T01:33:45;3.90;;;1.30;;
23390;SDS011;11868;45.606;5.302;2022-07-29T01:36:14;2.95;;;1.35;;
23390;SDS011;11868;45.606;5.302;2022-07-29T01:38:42;4.80;;;1.35;;
23390;SDS011;11868;45.606;5.302;2022-07-29T01:41:14;6.05;;;1.20;;
23390;SDS011;11868;45.606;5.302;2022-07-29T01:43:49;2.42;;;1.25;;
23390;SDS011;11868;45.606;5.302;2022-07-29T01:46:37;5.07;;;1.30;;
23390;SDS011;11868;45.606;5.302;2022-07-29T01:49:15;2.70;;;1.20;;
23390;SDS011;11868;45.606;5.302;2022-07-29T01:51:50;1.88;;;1.30;;
23390;SDS011;11868;45.606;5.302;2022-07-29T01:54:39;5.95;;;1.20;;
23390;SDS011;11868;45.606;5.302;2022-07-29T01:57:08;2.75;;;1.30;;
23390;SDS011;11868;45.606;5.302;2022-07-29T01:59:34;3.75;;;1.35;;
23390;SDS011;11868;45.606;5.302;2022-07-29T02:02:01;3.42;;;1.45;;
23390;SDS011;11868;45.606;5.302;2022-07-29T02:04:27;8.63;;;1.60;;
23390;SDS011;11868;45.606;5.302;2022-07-29T02:06:53;3.22;;;1.40;;
23390;SDS011;11868;45.606;5.302;2022-07-29T02:09:20;6.53;;;1.20;;
23390;SDS011;11868;45.606;5.302;2022-07-29T02:11:51;3.53;;;1.60;;
23390;SDS011;11868;45.606;5.302;2022-07-29T02:14:18;4.20;;;1.20;;
23390;SDS011;11868;45.606;5.302;2022-07-29T02:16:44;5.90;;;1.60;;
23390;SDS011;11868;45.606;5.302;2022-07-29T02:19:10;4.95;;;1.38;;
23390;SDS011;11868;45.606;5.302;2022-07-29T02:21:37;6.90;;;1.65;;
23390;SDS011;11868;45.606;5.302;2022-07-29T02:24:03;2.35;;;1.40;;
23390;SDS011;11868;45.606;5.302;2022-07-29T02:26:29;3.75;;;1.23;;
23390;SDS011;11868;45.606;5.302;2022-07-29T02:28:57;5.25;;;1.73;;
23390;SDS011;11868;45.606;5.302;2022-07-29T02:31:25;3.50;;;1.08;;
23390;SDS011;11868;45.606;5.302;2022-07-29T02:33:52;3.15;;;1.50;;
23390;SDS011;11868;45.606;5.302;2022-07-29T02:36:17;6.15;;;1.33;;
23390;SDS011;11868;45.606;5.302;2022-07-29T02:38:46;4.85;;;1.52;;
23390;SDS011;11868;45.606;5.302;2022-07-29T02:44:10;1.60;;;1.10;;
23390;SDS011;11868;45.606;5.302;2022-07-29T02:46:37;2.20;;;1.23;;
23390;SDS011;11868;45.606;5.302;2022-07-29T02:52:01;4.88;;;1.20;;
23390;SDS011;11868;45.606;5.302;2022-07-29T02:57:37;4.85;;;1.50;;
23390;SDS011;11868;45.606;5.302;2022-07-29T03:00:16;5.32;;;1.58;;
23390;SDS011;11868;45.606;5.302;2022-07-29T03:02:44;4.28;;;1.42;;
23390;SDS011;11868;45.606;5.302;2022-07-29T03:05:15;4.68;;;1.60;;
23390;SDS011;11868;45.606;5.302;2022-07-29T03:07:45;3.03;;;1.30;;
23390;SDS011;11868;45.606;5.302;2022-07-29T03:10:12;2.78;;;1.63;;
23390;SDS011;11868;45.606;5.302;2022-07-29T03:12:38;1.75;;;1.17;;
23390;SDS011;11868;45.606;5.302;2022-07-29T03:15:05;4.80;;;1.60;;
23390;SDS011;11868;45.606;5.302;2022-07-29T03:17:31;3.30;;;1.25;;
23390;SDS011;11868;45.606;5.302;2022-07-29T03:19:56;4.38;;;1.50;;
23390;SDS011;11868;45.606;5.302;2022-07-29T03:22:23;4.35;;;1.38;;
23390;SDS011;11868;45.606;5.302;2022-07-29T03:24:49;4.15;;;1.25;;
23390;SDS011;11868;45.606;5.302;2022-07-29T03:27:14;3.92;;;1.58;;
23390;SDS011;11868;45.606;5.302;2022-07-29T03:29:39;5.47;;;2.00;;
23390;SDS011;11868;45.606;5.302;2022-07-29T03:32:05;8.20;;;1.60;;
23390;SDS011;11868;45.606;5.302;2022-07-29T03:34:31;5.45;;;1.52;;
23390;SDS011;11868;45.606;5.302;2022-07-29T03:36:56;5.38;;;1.65;;
23390;SDS011;11868;45.606;5.302;2022-07-29T03:39:23;2.45;;;1.45;;
23390;SDS011;11868;45.606;5.302;2022-07-29T03:41:52;4.05;;;1.42;;
23390;SDS011;11868;45.606;5.302;2022-07-29T03:44:18;5.13;;;1.67;;
23390;SDS011;11868;45.606;5.302;2022-07-29T03:46:45;3.30;;;1.45;;
23390;SDS011;11868;45.606;5.302;2022-07-29T03:49:11;8.60;;;1.73;;
23390;SDS011;11868;45.606;5.302;2022-07-29T03:51:37;4.60;;;1.80;;
23390;SDS011;11868;45.606;5.302;2022-07-29T03:54:03;2.45;;;1.42;;
23390;SDS011;11868;45.606;5.302;2022-07-29T03:56:29;2.13;;;1.60;;
23390;SDS011;11868;45.606;5.302;2022-07-29T03:58:57;3.50;;;1.50;;
23390;SDS011;11868;45.606;5.302;2022-07-29T04:01:23;4.40;;;1.58;;
23390;SDS011;11868;45.606;5.302;2022-07-29T04:03:48;3.97;;;1.58;;
23390;SDS011;11868;45.606;5.302;2022-07-29T04:06:14;1.90;;;1.38;;
23390;SDS011;11868;45.606;5.302;2022-07-29T04:08:40;4.60;;;1.48;;
23390;SDS011;11868;45.606;5.302;2022-07-29T04:11:05;3.42;;;1.67;;
23390;SDS011;11868;45.606;5.302;2022-07-29T04:13:31;4.50;;;1.73;;
23390;SDS011;11868;45.606;5.302;2022-07-29T04:15:57;10.10;;;1.88;;
23390;SDS011;11868;45.606;5.302;2022-07-29T04:18:23;5.32;;;1.60;;
23390;SDS011;11868;45.606;5.302;2022-07-29T04:20:49;10.25;;;1.70;;
23390;SDS011;11868;45.606;5.302;2022-07-29T04:23:14;4.53;;;1.52;;
23390;SDS011;11868;45.606;5.302;2022-07-29T04:25:40;3.97;;;1.77;;
23390;SDS011;11868;45.606;5.302;2022-07-29T04:28:06;6.75;;;1.90;;
23390;SDS011;11868;45.606;5.302;2022-07-29T04:30:32;9.32;;;1.70;;
23390;SDS011;11868;45.606;5.302;2022-07-29T04:32:58;3.85;;;1.80;;
23390;SDS011;11868;45.606;5.302;2022-07-29T04:35:25;6.18;;;1.65;;
23390;SDS011;11868;45.606;5.302;2022-07-29T04:37:51;4.78;;;1.73;;
23390;SDS011;11868;45.606;5.302;2022-07-29T04:40:17;5.78;;;1.48;;
23390;SDS011;11868;45.606;5.302;2022-07-29T04:42:42;8.27;;;2.00;;
23390;SDS011;11868;45.606;5.302;2022-07-29T04:45:07;5.35;;;1.92;;
23390;SDS011;11868;45.606;5.302;2022-07-29T04:47:33;4.15;;;1.70;;
23390;SDS011;11868;45.606;5.302;2022-07-29T04:49:58;5.35;;;1.90;;
23390;SDS011;11868;45.606;5.302;2022-07-29T04:52:24;6.45;;;2.08;;
23390;SDS011;11868;45.606;5.302;2022-07-29T04:54:49;2.50;;;1.60;;
23390;SDS011;11868;45.606;5.302;2022-07-29T04:57:15;9.50;;;2.22;;
23390;SDS011;11868;45.606;5.302;2022-07-29T04:59:40;3.55;;;1.50;;
23390;SDS011;11868;45.606;5.302;2022-07-29T05:02:05;7.55;;;1.80;;
23390;SDS011;11868;45.606;5.302;2022-07-29T05:04:31;5.28;;;1.40;;
23390;SDS011;11868;45.606;5.302;2022-07-29T05:06:56;6.93;;;2.30;;
23390;SDS011;11868;45.606;5.302;2022-07-29T05:09:21;2.53;;;1.67;;
23390;SDS011;11868;45.606;5.302;2022-07-29T05:11:47;7.75;;;1.83;;
23390;SDS011;11868;45.606;5.302;2022-07-29T05:14:12;6.60;;;1.55;;
23390;SDS011;11868;45.606;5.302;2022-07-29T05:16:37;4.10;;;1.45;;
23390;SDS011;11868;45.606;5.302;2022-07-29T05:19:04;2.35;;;1.60;;
23390;SDS011;11868;45.606;5.302;2022-07-29T05:21:30;7.60;;;1.85;;
23390;SDS011;11868;45.606;5.302;2022-07-29T05:23:55;3.00;;;1.65;;
23390;SDS011;11868;45.606;5.302;2022-07-29T05:26:21;4.97;;;1.60;;
23390;SDS011;11868;45.606;5.302;2022-07-29T05:28:46;6.47;;;1.77;;
23390;SDS011;11868;45.606;5.302;2022-07-29T05:31:11;2.92;;;1.67;;
23390;SDS011;11868;45.606;5.302;2022-07-29T05:33:39;1.65;;;1.50;;
23390;SDS011;11868;45.606;5.302;2022-07-29T05:36:05;2.38;;;1.40;;
23390;SDS011;11868;45.606;5.302;2022-07-29T05:38:31;3.70;;;1.58;;
23390;SDS011;11868;45.606;5.302;2022-07-29T05:40:57;5.82;;;1.83;;
23390;SDS011;11868;45.606;5.302;2022-07-29T05:43:23;4.75;;;1.58;;
23390;SDS011;11868;45.606;5.302;2022-07-29T05:45:49;5.60;;;1.77;;
23390;SDS011;11868;45.606;5.302;2022-07-29T05:48:14;3.72;;;1.70;;
23390;SDS011;11868;45.606;5.302;2022-07-29T05:50:39;5.68;;;1.83;;
23390;SDS011;11868;45.606;5.302;2022-07-29T05:53:05;6.03;;;1.77;;
23390;SDS011;11868;45.606;5.302;2022-07-29T05:55:30;10.65;;;2.00;;
23390;SDS011;11868;45.606;5.302;2022-07-29T05:57:56;5.32;;;1.98;;
23390;SDS011;11868;45.606;5.302;2022-07-29T06:00:21;4.47;;;2.47;;
23390;SDS011;11868;45.606;5.302;2022-07-29T06:02:47;4.13;;;1.80;;
23390;SDS011;11868;45.606;5.302;2022-07-29T06:05:12;6.07;;;1.80;;
23390;SDS011;11868;45.606;5.302;2022-07-29T06:07:38;6.07;;;1.90;;
23390;SDS011;11868;45.606;5.302;2022-07-29T06:10:04;5.93;;;2.28;;
23390;SDS011;11868;45.606;5.302;2022-07-29T06:12:30;6.93;;;1.67;;
23390;SDS011;11868;45.606;5.302;2022-07-29T06:14:55;7.90;;;1.80;;
23390;SDS011;11868;45.606;5.302;2022-07-29T06:17:21;13.27;;;1.80;;
23390;SDS011;11868;45.606;5.302;2022-07-29T06:19:46;11.27;;;2.08;;
23390;SDS011;11868;45.606;5.302;2022-07-29T06:22:12;5.05;;;1.90;;
23390;SDS011;11868;45.606;5.302;2022-07-29T06:24:40;7.57;;;2.20;;
23390;SDS011;11868;45.606;5.302;2022-07-29T06:27:08;10.10;;;2.25;;
23390;SDS011;11868;45.606;5.302;2022-07-29T06:29:37;13.02;;;2.70;;
23390;SDS011;11868;45.606;5.302;2022-07-29T06:32:02;11.18;;;2.50;;
23390;SDS011;11868;45.606;5.302;2022-07-29T06:34:28;9.65;;;2.17;;
23390;SDS011;11868;45.606;5.302;2022-07-29T06:36:53;7.97;;;2.20;;
23390;SDS011;11868;45.606;5.302;2022-07-29T06:39:19;8.40;;;2.10;;
23390;SDS011;11868;45.606;5.302;2022-07-29T06:41:48;8.68;;;2.10;;
23390;SDS011;11868;45.606;5.302;2022-07-29T06:44:14;10.93;;;2.33;;
23390;SDS011;11868;45.606;5.302;2022-07-29T06:46:40;10.63;;;2.53;;
23390;SDS011;11868;45.606;5.302;2022-07-29T06:49:06;12.90;;;2.05;;
23390;SDS011;11868;45.606;5.302;2022-07-29T06:51:32;6.22;;;2.45;;
23390;SDS011;11868;45.606;5.302;2022-07-29T06:53:57;15.85;;;2.58;;
23390;SDS011;11868;45.606;5.302;2022-07-29T06:56:23;7.55;;;2.30;;
23390;SDS011;11868;45.606;5.302;2022-07-29T06:58:48;16.23;;;2.58;;
23390;SDS011;11868;45.606;5.302;2022-07-29T07:01:14;7.15;;;2.92;;
23390;SDS011;11868;45.606;5.302;2022-07-29T07:03:40;5.30;;;2.25;;
23390;SDS011;11868;45.606;5.302;2022-07-29T07:06:06;6.82;;;2.90;;
23390;SDS011;11868;45.606;5.302;2022-07-29T07:08:32;7.85;;;2.33;;
23390;SDS011;11868;45.606;5.302;2022-07-29T07:10:58;4.30;;;2.38;;
23390;SDS011;11868;45.606;5.302;2022-07-29T07:13:23;6.97;;;2.20;;
23390;SDS011;11868;45.606;5.302;2022-07-29T07:15:49;7.47;;;2.90;;
23390;SDS011;11868;45.606;5.302;2022-07-29T07:18:16;8.15;;;2.72;;
23390;SDS011;11868;45.606;5.302;2022-07-29T07:20:41;5.60;;;2.60;;
23390;SDS011;11868;45.606;5.302;2022-07-29T07:23:07;7.95;;;2.10;;
23390;SDS011;11868;45.606;5.302;2022-07-29T07:25:32;9.50;;;2.78;;
23390;SDS011;11868;45.606;5.302;2022-07-29T07:27:58;10.48;;;2.90;;
23390;SDS011;11868;45.606;5.302;2022-07-29T07:30:23;4.90;;;2.25;;
23390;SDS011;11868;45.606;5.302;2022-07-29T07:32:49;5.97;;;2.25;;
23390;SDS011;11868;45.606;5.302;2022-07-29T07:35:14;6.82;;;2.22;;
23390;SDS011;11868;45.606;5.302;2022-07-29T07:37:39;8.32;;;2.38;;
23390;SDS011;11868;45.606;5.302;2022-07-29T07:40:08;17.33;;;2.60;;
23390;SDS011;11868;45.606;5.302;2022-07-29T07:42:35;11.25;;;2.85;;
23390;SDS011;11868;45.606;5.302;2022-07-29T07:45:00;5.22;;;2.40;;
23390;SDS011;11868;45.606;5.302;2022-07-29T07:47:25;9.52;;;2.60;;
23390;SDS011;11868;45.606;5.302;2022-07-29T07:49:51;5.55;;;2.20;;
23390;SDS011;11868;45.606;5.302;2022-07-29T07:52:18;10.38;;;3.22;;
23390;SDS011;11868;45.606;5.302;2022-07-29T07:54:44;10.05;;;2.88;;
23390;SDS011;11868;45.606;5.302;2022-07-29T07:57:11;9.18;;;2.50;;
23390;SDS011;11868;45.606;5.302;2022-07-29T07:59:37;5.70;;;2.60;;
23390;SDS011;11868;45.606;5.302;2022-07-29T08:02:03;7.85;;;3.05;;
23390;SDS011;11868;45.606;5.302;2022-07-29T08:04:28;5.20;;;2.95;;
23390;SDS011;11868;45.606;5.302;2022-07-29T08:06:54;11.25;;;3.10;;
23390;SDS011;11868;45.606;5.302;2022-07-29T08:09:20;5.70;;;2.92;;
23390;SDS011;11868;45.606;5.302;2022-07-29T08:11:46;12.23;;;2.65;;
23390;SDS011;11868;45.606;5.302;2022-07-29T08:14:11;8.30;;;2.72;;
23390;SDS011;11868;45.606;5.302;2022-07-29T08:16:38;9.95;;;2.50;;
23390;SDS011;11868;45.606;5.302;2022-07-29T08:19:04;6.50;;;1.92;;
23390;SDS011;11868;45.606;5.302;2022-07-29T08:21:30;4.90;;;2.55;;
23390;SDS011;11868;45.606;5.302;2022-07-29T08:23:55;5.75;;;2.42;;
23390;SDS011;11868;45.606;5.302;2022-07-29T08:26:41;10.48;;;2.60;;
23390;SDS011;11868;45.606;5.302;2022-07-29T08:29:07;8.32;;;3.03;;
23390;SDS011;11868;45.606;5.302;2022-07-29T08:31:32;5.95;;;2.80;;
23390;SDS011;11868;45.606;5.302;2022-07-29T08:33:58;7.03;;;2.60;;
23390;SDS011;11868;45.606;5.302;2022-07-29T08:36:24;9.95;;;3.47;;
23390;SDS011;11868;45.606;5.302;2022-07-29T08:38:50;6.53;;;2.53;;
23390;SDS011;11868;45.606;5.302;2022-07-29T08:41:16;6.25;;;2.88;;
23390;SDS011;11868;45.606;5.302;2022-07-29T08:43:43;14.43;;;3.95;;
23390;SDS011;11868;45.606;5.302;2022-07-29T08:46:09;9.10;;;3.17;;
23390;SDS011;11868;45.606;5.302;2022-07-29T08:48:35;9.32;;;3.38;;
23390;SDS011;11868;45.606;5.302;2022-07-29T08:51:01;7.18;;;3.78;;
23390;SDS011;11868;45.606;5.302;2022-07-29T08:53:27;11.02;;;3.80;;
23390;SDS011;11868;45.606;5.302;2022-07-29T08:55:53;12.02;;;3.58;;
23390;SDS011;11868;45.606;5.302;2022-07-29T08:58:19;10.27;;;3.58;;
23390;SDS011;11868;45.606;5.302;2022-07-29T09:00:48;7.45;;;3.50;;
23390;SDS011;11868;45.606;5.302;2022-07-29T09:03:20;6.03;;;3.30;;
23390;SDS011;11868;45.606;5.302;2022-07-29T09:05:46;6.70;;;3.35;;
23390;SDS011;11868;45.606;5.302;2022-07-29T09:08:15;8.15;;;3.20;;
23390;SDS011;11868;45.606;5.302;2022-07-29T09:13:06;7.10;;;3.35;;
23390;SDS011;11868;45.606;5.302;2022-07-29T09:15:32;8.40;;;3.13;;
23390;SDS011;11868;45.606;5.302;2022-07-29T09:17:57;13.75;;;3.42;;
23390;SDS011;11868;45.606;5.302;2022-07-29T09:20:24;10.05;;;2.97;;
23390;SDS011;11868;45.606;5.302;2022-07-29T09:22:50;9.20;;;3.28;;
23390;SDS011;11868;45.606;5.302;2022-07-29T09:28:13;11.98;;;4.30;;
23390;SDS011;11868;45.606;5.302;2022-07-29T09:30:53;8.65;;;3.75;;
23390;SDS011;11868;45.606;5.302;2022-07-29T09:33:23;10.73;;;3.72;;
23390;SDS011;11868;45.606;5.302;2022-07-29T09:38:24;11.75;;;3.70;;
23390;SDS011;11868;45.606;5.302;2022-07-29T09:40:56;9.48;;;3.30;;
23390;SDS011;11868;45.606;5.302;2022-07-29T09:43:25;15.88;;;3.58;;
23390;SDS011;11868;45.606;5.302;2022-07-29T09:45:51;9.65;;;3.72;;
23390;SDS011;11868;45.606;5.302;2022-07-29T09:48:17;6.35;;;3.42;;
23390;SDS011;11868;45.606;5.302;2022-07-29T09:50:44;12.95;;;3.58;;
23390;SDS011;11868;45.606;5.302;2022-07-29T09:53:11;8.90;;;3.63;;
23390;SDS011;11868;45.606;5.302;2022-07-29T09:55:49;14.40;;;3.65;;
23390;SDS011;11868;45.606;5.302;2022-07-29T09:58:19;9.45;;;4.25;;
23390;SDS011;11868;45.606;5.302;2022-07-29T10:00:47;7.25;;;3.67;;
23390;SDS011;11868;45.606;5.302;2022-07-29T10:03:16;12.45;;;4.18;;
23390;SDS011;11868;45.606;5.302;2022-07-29T10:08:08;10.30;;;3.40;;
23390;SDS011;11868;45.606;5.302;2022-07-29T10:10:35;7.97;;;3.63;;
23390;SDS011;11868;45.606;5.302;2022-07-29T10:13:03;7.20;;;3.97;;
23390;SDS011;11868;45.606;5.302;2022-07-29T10:15:30;5.85;;;3.42;;
23390;SDS011;11868;45.606;5.302;2022-07-29T10:17:57;8.55;;;3.83;;
23390;SDS011;11868;45.606;5.302;2022-07-29T10:20:23;7.15;;;3.50;;
23390;SDS011;11868;45.606;5.302;2022-07-29T10:22:49;7.97;;;4.05;;
23390;SDS011;11868;45.606;5.302;2022-07-29T10:25:16;10.15;;;4.20;;
23390;SDS011;11868;45.606;5.302;2022-07-29T10:27:42;13.13;;;4.53;;
23390;SDS011;11868;45.606;5.302;2022-07-29T10:30:09;8.25;;;4.88;;
23390;SDS011;11868;45.606;5.302;2022-07-29T10:40:49;8.52;;;3.55;;
23390;SDS011;11868;45.606;5.302;2022-07-29T10:43:41;7.72;;;3.53;;
23390;SDS011;11868;45.606;5.302;2022-07-29T10:46:08;7.70;;;3.35;;
23390;SDS011;11868;45.606;5.302;2022-07-29T10:48:33;6.03;;;3.35;;
23390;SDS011;11868;45.606;5.302;2022-07-29T10:51:00;4.72;;;3.45;;
23390;SDS011;11868;45.606;5.302;2022-07-29T10:53:49;4.35;;;3.08;;
23390;SDS011;11868;45.606;5.302;2022-07-29T10:56:29;6.88;;;3.00;;
23390;SDS011;11868;45.606;5.302;2022-07-29T11:01:43;7.32;;;3.42;;
23390;SDS011;11868;45.606;5.302;2022-07-29T11:04:08;6.00;;;3.05;;
23390;SDS011;11868;45.606;5.302;2022-07-29T11:09:35;8.35;;;3.17;;
23390;SDS011;11868;45.606;5.302;2022-07-29T11:12:00;4.18;;;2.72;;
23390;SDS011;11868;45.606;5.302;2022-07-29T11:17:27;4.65;;;3.20;;
23390;SDS011;11868;45.606;5.302;2022-07-29T11:22:56;7.18;;;3.53;;
23390;SDS011;11868;45.606;5.302;2022-07-29T11:25:22;6.50;;;3.70;;
23390;SDS011;11868;45.606;5.302;2022-07-29T11:27:48;7.72;;;3.60;;
23390;SDS011;11868;45.606;5.302;2022-07-29T11:30:14;4.60;;;3.30;;
23390;SDS011;11868;45.606;5.302;2022-07-29T11:32:40;5.93;;;4.07;;
23390;SDS011;11868;45.606;5.302;2022-07-29T11:43:54;6.38;;;3.47;;
23390;SDS011;11868;45.606;5.302;2022-07-29T11:49:09;5.43;;;3.72;;
23390;SDS011;11868;45.606;5.302;2022-07-29T11:51:35;6.30;;;3.88;;
23390;SDS011;11868;45.606;5.302;2022-07-29T11:54:02;6.80;;;4.28;;
23390;SDS011;11868;45.606;5.302;2022-07-29T11:56:27;7.55;;;4.38;;
23390;SDS011;11868;45.606;5.302;2022-07-29T11:59:03;6.28;;;4.30;;
23390;SDS011;11868;45.606;5.302;2022-07-29T12:01:34;4.47;;;3.90;;
23390;SDS011;11868;45.606;5.302;2022-07-29T12:04:03;5.82;;;4.25;;
23390;SDS011;11868;45.606;5.302;2022-07-29T12:06:35;5.78;;;4.20;;
23390;SDS011;11868;45.606;5.302;2022-07-29T12:09:06;7.63;;;4.13;;
23390;SDS011;11868;45.606;5.302;2022-07-29T12:11:32;6.80;;;4.22;;
23390;SDS011;11868;45.606;5.302;2022-07-29T12:13:58;6.40;;;3.67;;
23390;SDS011;11868;45.606;5.302;2022-07-29T12:16:23;7.25;;;3.67;;
23390;SDS011;11868;45.606;5.302;2022-07-29T12:19:00;6.90;;;3.53;;
23390;SDS011;11868;45.606;5.302;2022-07-29T12:21:27;5.55;;;3.58;;
23390;SDS011;11868;45.606;5.302;2022-07-29T12:23:53;6.07;;;3.17;;
23390;SDS011;11868;45.606;5.302;2022-07-29T12:26:21;5.35;;;3.13;;
23390;SDS011;11868;45.606;5.302;2022-07-29T12:28:47;5.78;;;3.33;;
23390;SDS011;11868;45.606;5.302;2022-07-29T12:31:13;5.32;;;3.72;;
23390;SDS011;11868;45.606;5.302;2022-07-29T12:33:39;5.85;;;3.30;;
23390;SDS011;11868;45.606;5.302;2022-07-29T12:36:05;7.28;;;3.20;;
23390;SDS011;11868;45.606;5.302;2022-07-29T12:38:31;4.07;;;2.75;;
23390;SDS011;11868;45.606;5.302;2022-07-29T12:40:56;5.57;;;2.60;;
23390;SDS011;11868;45.606;5.302;2022-07-29T12:43:23;4.18;;;2.75;;
23390;SDS011;11868;45.606;5.302;2022-07-29T12:45:53;4.10;;;3.00;;
23390;SDS011;11868;45.606;5.302;2022-07-29T12:48:32;5.63;;;2.80;;
23390;SDS011;11868;45.606;5.302;2022-07-29T12:50:59;6.47;;;2.40;;
23390;SDS011;11868;45.606;5.302;2022-07-29T12:53:26;6.13;;;1.95;;
23390;SDS011;11868;45.606;5.302;2022-07-29T12:55:52;4.10;;;2.65;;
23390;SDS011;11868;45.606;5.302;2022-07-29T12:58:26;3.17;;;2.20;;
23390;SDS011;11868;45.606;5.302;2022-07-29T13:01:04;4.40;;;2.60;;
23390;SDS011;11868;45.606;5.302;2022-07-29T13:14:02;3.50;;;2.10;;
23390;SDS011;11868;45.606;5.302;2022-07-29T13:16:28;6.50;;;2.40;;
23390;SDS011;11868;45.606;5.302;2022-07-29T13:21:32;2.63;;;2.10;;
23390;SDS011;11868;45.606;5.302;2022-07-29T13:23:58;2.80;;;2.15;;
23390;SDS011;11868;45.606;5.302;2022-07-29T13:26:23;2.00;;;1.80;;
23390;SDS011;11868;45.606;5.302;2022-07-29T13:28:48;3.15;;;2.20;;
23390;SDS011;11868;45.606;5.302;2022-07-29T13:31:14;3.67;;;2.13;;
23390;SDS011;11868;45.606;5.302;2022-07-29T13:33:40;3.15;;;1.90;;
23390;SDS011;11868;45.606;5.302;2022-07-29T13:36:06;4.22;;;2.08;;
23390;SDS011;11868;45.606;5.302;2022-07-29T13:38:31;2.50;;;1.90;;
23390;SDS011;11868;45.606;5.302;2022-07-29T13:40:57;8.50;;;2.13;;
23390;SDS011;11868;45.606;5.302;2022-07-29T13:43:22;3.13;;;1.98;;
23390;SDS011;11868;45.606;5.302;2022-07-29T13:45:48;4.22;;;1.90;;
23390;SDS011;11868;45.606;5.302;2022-07-29T13:48:13;3.08;;;1.60;;
23390;SDS011;11868;45.606;5.302;2022-07-29T13:50:39;2.83;;;1.73;;
23390;SDS011;11868;45.606;5.302;2022-07-29T13:53:04;2.42;;;1.83;;
23390;SDS011;11868;45.606;5.302;2022-07-29T13:55:29;5.20;;;1.95;;
23390;SDS011;11868;45.606;5.302;2022-07-29T13:57:55;3.97;;;2.00;;
23390;SDS011;11868;45.606;5.302;2022-07-29T14:00:20;3.03;;;1.70;;
23390;SDS011;11868;45.606;5.302;2022-07-29T14:02:45;3.25;;;1.80;;
23390;SDS011;11868;45.606;5.302;2022-07-29T14:05:11;2.58;;;1.80;;
23390;SDS011;11868;45.606;5.302;2022-07-29T14:07:37;3.38;;;1.98;;
23390;SDS011;11868;45.606;5.302;2022-07-29T14:10:03;3.13;;;1.83;;
23390;SDS011;11868;45.606;5.302;2022-07-29T14:12:29;3.85;;;2.30;;
23390;SDS011;11868;45.606;5.302;2022-07-29T14:14:55;4.25;;;2.10;;
23390;SDS011;11868;45.606;5.302;2022-07-29T14:17:20;4.13;;;1.92;;
23390;SDS011;11868;45.606;5.302;2022-07-29T14:19:46;2.65;;;2.00;;
23390;SDS011;11868;45.606;5.302;2022-07-29T14:22:11;5.43;;;2.45;;
23390;SDS011;11868;45.606;5.302;2022-07-29T14:24:36;6.05;;;2.30;;
23390;SDS011;11868;45.606;5.302;2022-07-29T14:27:03;2.47;;;1.80;;
23390;SDS011;11868;45.606;5.302;2022-07-29T14:29:29;5.13;;;2.20;;
23390;SDS011;11868;45.606;5.302;2022-07-29T14:31:54;4.38;;;2.10;;
23390;SDS011;11868;45.606;5.302;2022-07-29T14:34:20;4.18;;;1.88;;
23390;SDS011;11868;45.606;5.302;2022-07-29T14:36:45;2.95;;;1.95;;
23390;SDS011;11868;45.606;5.302;2022-07-29T14:39:11;3.05;;;2.13;;
23390;SDS011;11868;45.606;5.302;2022-07-29T14:41:36;3.30;;;2.05;;
23390;SDS011;11868;45.606;5.302;2022-07-29T14:44:03;2.78;;;2.17;;
23390;SDS011;11868;45.606;5.302;2022-07-29T14:46:28;5.03;;;2.17;;
23390;SDS011;11868;45.606;5.302;2022-07-29T14:48:54;4.00;;;2.00;;
23390;SDS011;11868;45.606;5.302;2022-07-29T14:51:19;2.55;;;1.67;;
23390;SDS011;11868;45.606;5.302;2022-07-29T14:53:44;2.50;;;2.05;;
23390;SDS011;11868;45.606;5.302;2022-07-29T14:56:10;4.47;;;2.25;;
23390;SDS011;11868;45.606;5.302;2022-07-29T14:58:35;4.10;;;1.92;;
23390;SDS011;11868;45.606;5.302;2022-07-29T15:01:01;3.00;;;1.88;;
23390;SDS011;11868;45.606;5.302;2022-07-29T15:03:26;4.13;;;1.60;;
23390;SDS011;11868;45.606;5.302;2022-07-29T15:05:53;3.05;;;1.60;;
23390;SDS011;11868;45.606;5.302;2022-07-29T15:08:18;3.90;;;1.65;;
23390;SDS011;11868;45.606;5.302;2022-07-29T15:10:44;3.58;;;1.50;;
23390;SDS011;11868;45.606;5.302;2022-07-29T15:13:09;4.10;;;2.00;;
23390;SDS011;11868;45.606;5.302;2022-07-29T15:15:34;5.38;;;1.92;;
23390;SDS011;11868;45.606;5.302;2022-07-29T15:18:00;4.38;;;1.60;;
23390;SDS011;11868;45.606;5.302;2022-07-29T15:20:25;3.67;;;1.92;;
23390;SDS011;11868;45.606;5.302;2022-07-29T15:22:52;4.85;;;1.90;;
23390;SDS011;11868;45.606;5.302;2022-07-29T15:25:17;4.18;;;1.55;;
23390;SDS011;11868;45.606;5.302;2022-07-29T15:27:43;4.90;;;1.83;;
23390;SDS011;11868;45.606;5.302;2022-07-29T15:30:08;2.10;;;1.45;;
23390;SDS011;11868;45.606;5.302;2022-07-29T15:32:34;2.30;;;1.70;;
23390;SDS011;11868;45.606;5.302;2022-07-29T15:35:00;5.53;;;2.10;;
23390;SDS011;11868;45.606;5.302;2022-07-29T15:37:25;4.70;;;2.00;;
23390;SDS011;11868;45.606;5.302;2022-07-29T15:39:50;2.35;;;1.30;;
23390;SDS011;11868;45.606;5.302;2022-07-29T15:42:16;5.80;;;1.90;;
23390;SDS011;11868;45.606;5.302;2022-07-29T15:44:41;4.45;;;2.10;;
23390;SDS011;11868;45.606;5.302;2022-07-29T15:47:06;7.15;;;2.00;;
23390;SDS011;11868;45.606;5.302;2022-07-29T15:51:58;2.38;;;1.55;;
23390;SDS011;11868;45.606;5.302;2022-07-29T15:54:25;2.67;;;1.85;;
23390;SDS011;11868;45.606;5.302;2022-07-29T15:56:51;4.30;;;1.67;;
23390;SDS011;11868;45.606;5.302;2022-07-29T15:59:16;4.32;;;1.80;;
23390;SDS011;11868;45.606;5.302;2022-07-29T16:01:42;3.17;;;1.70;;